Time;durP1;ratioP1;P1;durP2;ratioP2;P2;SDS_P1;SDS_P2;PMS_P1;PMS_P2;Temp;Humidity;BMP_temperature;BMP_pressure;BME280_temperature;BME280_humidity;BME280_pressure;Samples;Min_cycle;Max_cycle;Signal;HPM_P1;HPM_P2
2022/06/13 00:00:52;;;;;;;0.20;0.00;;;23.90;99.90;;;;;;21112762;28;20251;-74
2022/06/13 00:10:57;;;;;;;0.20;0.10;;;23.90;99.90;;;;;;21138649;28;20199;-75
2022/06/13 00:21:01;;;;;;;0.20;0.00;;;23.70;99.90;;;;;;21111470;28;20223;-76
2022/06/13 00:31:06;;;;;;;0.20;0.00;;;23.30;99.90;;;;;;21104183;28;20192;-74
2022/06/13 00:41:10;;;;;;;0.20;0.00;;;23.20;99.90;;;;;;21137404;28;20196;-74
2022/06/13 00:51:16;;;;;;;0.20;0.00;;;23.20;99.90;;;;;;21122576;28;20256;-73
2022/06/13 01:01:21;;;;;;;0.20;0.00;;;22.90;99.90;;;;;;21139892;28;20196;-74
2022/06/13 01:11:27;;;;;;;0.20;0.00;;;22.90;99.90;;;;;;21139983;28;20234;-74
2022/06/13 01:21:40;;;;;;;0.20;0.00;;;22.90;99.90;;;;;;21141147;28;20287;-74
2022/06/13 01:31:50;;;;;;;0.20;0.10;;;22.70;99.90;;;;;;21155451;28;20212;-74
2022/06/13 01:42:06;;;;;;;0.20;0.00;;;22.60;99.90;;;;;;21199263;28;20731;-74
2022/06/13 01:52:20;;;;;;;0.20;0.00;;;22.60;99.90;;;;;;21238810;28;20255;-74
2022/06/13 02:02:31;;;;;;;0.20;0.00;;;22.20;99.90;;;;;;21219742;28;20249;-74
2022/06/13 02:12:36;;;;;;;0.20;0.00;;;22.30;99.90;;;;;;21237320;28;20198;-74
2022/06/13 02:22:43;;;;;;;0.20;0.00;;;22.20;99.90;;;;;;21215981;28;20302;-73
2022/06/13 02:32:51;;;;;;;0.20;0.00;;;22.10;99.90;;;;;;21235930;28;20656;-74
2022/06/13 02:43:02;;;;;;;0.20;0.00;;;22.10;99.90;;;;;;21233113;28;20282;-75
2022/06/13 02:53:13;;;;;;;0.20;0.10;;;21.90;99.90;;;;;;21232613;28;20195;-73
2022/06/13 03:03:22;;;;;;;0.20;0.10;;;21.70;99.90;;;;;;21233398;28;20249;-74
2022/06/13 03:13:32;;;;;;;0.20;0.00;;;21.90;99.90;;;;;;21213578;28;20207;-74
2022/06/13 03:23:45;;;;;;;0.20;0.00;;;21.50;99.90;;;;;;21230046;28;20254;-74
2022/06/13 03:33:55;;;;;;;0.20;0.00;;;21.60;99.90;;;;;;21228274;28;20202;-73
2022/06/13 03:44:02;;;;;;;0.20;0.10;;;21.90;99.90;;;;;;21227733;28;20221;-73
2022/06/13 03:54:13;;;;;;;0.20;0.10;;;21.70;99.90;;;;;;21191666;28;20218;-73
2022/06/13 04:04:24;;;;;;;0.20;0.00;;;21.60;99.90;;;;;;21206958;28;20219;-74
2022/06/13 04:14:50;;;;;;;0.20;0.00;;;21.60;99.90;;;;;;21227542;28;20195;-74
2022/06/13 04:24:59;;;;;;;0.20;0.00;;;21.50;99.90;;;;;;21182098;28;20243;-74
2022/06/13 04:35:06;;;;;;;0.20;0.00;;;21.50;99.90;;;;;;21225959;28;20234;-73
2022/06/13 04:45:20;;;;;;;0.20;0.00;;;21.80;99.90;;;;;;21204863;28;20260;-75
2022/06/13 04:55:31;;;;;;;0.20;0.00;;;21.80;99.90;;;;;;21222321;28;20184;-73
2022/06/13 05:05:41;;;;;;;0.20;0.00;;;21.50;99.90;;;;;;21239772;28;20215;-74
2022/06/13 05:15:53;;;;;;;0.20;0.00;;;21.40;99.90;;;;;;21220907;28;20295;-74
2022/06/13 05:25:59;;;;;;;0.20;0.00;;;21.80;99.90;;;;;;21237882;28;20242;-75
2022/06/13 05:36:06;;;;;;;0.20;0.00;;;22.10;99.90;;;;;;21237189;28;20977;-74
2022/06/13 05:46:16;;;;;;;0.20;0.00;;;22.60;99.90;;;;;;21214851;28;20246;-73
2022/06/13 05:56:24;;;;;;;0.20;0.10;;;22.90;99.90;;;;;;21227335;28;20195;-73
2022/06/13 06:06:29;;;;;;;0.20;0.00;;;23.10;99.90;;;;;;21227406;28;20270;-76
2022/06/13 06:16:34;;;;;;;0.20;0.00;;;23.50;99.90;;;;;;21228901;28;20282;-74
2022/06/13 06:26:38;;;;;;;0.20;0.00;;;23.30;99.90;;;;;;21212982;28;20223;-74
2022/06/13 06:36:43;;;;;;;0.20;0.00;;;23.50;99.90;;;;;;21213425;28;20219;-74
2022/06/13 06:46:48;;;;;;;0.20;0.03;;;24.50;99.90;;;;;;21229439;28;20235;-73
2022/06/13 07:07:15;;;;;;;0.20;0.10;;;25.50;99.90;;;;;;21209828;28;20226;-76
2022/06/13 07:17:20;;;;;;;0.20;0.00;;;25.90;99.90;;;;;;21225081;28;20223;-74
2022/06/13 07:27:24;;;;;;;0.20;0.10;;;25.60;99.90;;;;;;21207724;28;20233;-73
2022/06/13 07:47:51;;;;;;;0.20;0.00;;;25.20;99.90;;;;;;21223133;28;20245;-75
2022/06/13 07:57:56;;;;;;;0.20;0.00;;;25.00;99.90;;;;;;21206640;28;20191;-73
2022/06/13 08:08:01;;;;;;;0.20;0.00;;;25.40;99.90;;;;;;21223298;28;20241;-73
2022/06/13 08:18:06;;;;;;;0.20;0.10;;;25.60;99.90;;;;;;21223246;28;20227;-73
2022/06/13 08:28:11;;;;;;;0.20;0.10;;;25.60;99.90;;;;;;21221989;28;20214;-72
2022/06/13 08:38:17;;;;;;;0.20;0.00;;;26.00;99.90;;;;;;21203337;28;20206;-74
2022/06/13 08:48:26;;;;;;;0.20;0.00;;;26.00;99.90;;;;;;21173288;28;20699;-73
2022/06/13 08:58:35;;;;;;;0.20;0.10;;;26.20;99.90;;;;;;21122355;28;20218;-71
2022/06/13 09:08:47;;;;;;;0.20;0.00;;;26.50;99.90;;;;;;21125866;28;20287;-72
2022/06/13 09:18:58;;;;;;;0.20;0.00;;;27.10;99.90;;;;;;21105970;28;20222;-72
2022/06/13 09:29:11;;;;;;;0.20;0.00;;;27.60;99.90;;;;;;21123634;28;20235;-71
2022/06/13 09:39:18;;;;;;;0.20;0.00;;;28.10;99.90;;;;;;21124924;28;20184;-70
2022/06/13 09:49:36;;;;;;;0.20;0.05;;;29.00;99.90;;;;;;21135345;28;20285;-70
2022/06/13 10:00:01;;;;;;;0.20;0.00;;;29.60;99.90;;;;;;21140677;28;20191;-69
2022/06/13 10:10:11;;;;;;;0.20;0.03;;;29.80;99.90;;;;;;21139033;28;20245;-70
2022/06/13 10:20:25;;;;;;;0.20;0.00;;;30.20;99.90;;;;;;21138555;28;20234;-70
2022/06/13 10:30:42;;;;;;;0.20;0.00;;;30.60;99.90;;;;;;21136617;28;20279;-71
2022/06/13 10:40:47;;;;;;;0.20;0.00;;;29.60;99.90;;;;;;21116601;28;21059;-70
2022/06/13 10:50:55;;;;;;;0.20;0.00;;;28.80;99.90;;;;;;21135381;28;20227;-69
2022/06/13 11:01:07;;;;;;;0.20;0.00;;;28.60;99.90;;;;;;21136165;28;20210;-74
2022/06/13 11:11:14;;;;;;;0.20;0.00;;;28.90;99.90;;;;;;21133429;28;20282;-74
2022/06/13 11:31:52;;;;;;;0.20;0.00;;;29.10;99.90;;;;;;21111090;28;20211;-75
2022/06/13 11:41:58;;;;;;;0.20;0.00;;;31.20;99.90;;;;;;21125856;28;20222;-74
2022/06/13 11:52:07;;;;;;;0.20;0.00;;;31.30;99.90;;;;;;21127586;28;20224;-73
2022/06/13 12:02:18;;;;;;;0.20;0.00;;;32.60;99.90;;;;;;21123153;28;20216;-74
2022/06/13 12:12:22;;;;;;;0.20;0.00;;;32.50;99.90;;;;;;21107005;28;20230;-77
2022/06/13 12:22:36;;;;;;;0.20;0.00;;;33.00;99.90;;;;;;21127813;28;20338;-74
2022/06/13 12:32:44;;;;;;;0.20;0.00;;;32.80;99.90;;;;;;21116201;28;20242;-73
2022/06/13 12:43:15;;;;;;;0.20;0.00;;;33.80;99.90;;;;;;21109102;28;20207;-73
2022/06/13 12:53:31;;;;;;;0.20;0.00;;;33.60;99.90;;;;;;21125671;28;20204;-73
2022/06/13 13:03:58;;;;;;;0.20;0.00;;;34.00;99.90;;;;;;21125545;28;20241;-71
2022/06/13 13:14:13;;;;;;;0.20;0.00;;;34.40;99.90;;;;;;21126236;28;20203;-69
2022/06/13 13:24:33;;;;;;;0.20;0.00;;;35.60;99.90;;;;;;21136875;28;20270;-74
2022/06/13 13:34:46;;;;;;;0.20;0.00;;;35.00;99.90;;;;;;21123860;28;20212;-71
2022/06/13 13:44:58;;;;;;;0.20;0.00;;;34.10;99.90;;;;;;21136402;28;20246;-72
2022/06/13 13:55:05;;;;;;;0.20;0.00;;;34.50;99.90;;;;;;21034307;28;20259;-73
2022/06/13 14:05:35;;;;;;;0.20;0.00;;;33.90;99.90;;;;;;21054503;28;21297;-73
2022/06/13 14:15:55;;;;;;;0.20;0.10;;;33.40;99.90;;;;;;21046860;28;20312;-75
2022/06/13 14:26:01;;;;;;;0.20;0.00;;;33.30;99.90;;;;;;21111835;28;20220;-73
2022/06/13 14:36:07;;;;;;;0.20;0.00;;;34.30;99.90;;;;;;21133729;28;20255;-71
2022/06/13 14:46:41;;;;;;;0.20;0.00;;;33.80;99.90;;;;;;21132279;28;20230;-71
2022/06/13 14:56:45;;;;;;;0.20;0.00;;;34.70;99.90;;;;;;21097065;28;20220;-72
2022/06/13 15:07:16;;;;;;;0.20;0.00;;;34.50;99.90;;;;;;21130278;28;20235;-71
2022/06/13 15:17:22;;;;;;;0.20;0.00;;;34.90;99.90;;;;;;21130373;28;20253;-70
2022/06/13 15:27:27;;;;;;;0.20;0.00;;;35.00;99.90;;;;;;21128442;28;20227;-72
2022/06/13 15:37:33;;;;;;;0.20;0.00;;;36.20;99.90;;;;;;21130457;28;20203;-73
2022/06/13 15:47:39;;;;;;;0.20;0.00;;;36.70;99.90;;;;;;21129662;28;20224;-73
2022/06/13 15:57:46;;;;;;;0.20;0.00;;;36.20;99.90;;;;;;21129863;28;20252;-72
2022/06/13 16:07:54;;;;;;;0.20;0.00;;;35.80;99.90;;;;;;21127819;28;20255;-74
2022/06/13 16:17:59;;;;;;;0.20;0.00;;;35.50;99.90;;;;;;21092823;28;20237;-72
2022/06/13 16:28:07;;;;;;;0.20;0.00;;;34.60;99.90;;;;;;20970895;28;20225;-72
2022/06/13 16:38:16;;;;;;;0.20;0.00;;;34.70;99.90;;;;;;20959220;28;20193;-76
2022/06/13 16:48:22;;;;;;;0.20;0.00;;;34.50;99.90;;;;;;20940248;28;20293;-70
2022/06/13 17:10:10;;;;;;;0.20;0.00;;;33.80;99.90;;;;;;21294462;27;20582;-73
2022/06/13 17:20:16;;;;;;;0.20;0.00;;;35.40;99.90;;;;;;21292504;27;20230;-72
2022/06/13 17:40:47;;;;;;;0.20;0.00;;;35.20;99.90;;;;;;21287447;27;20263;-74
2022/06/13 17:50:52;;;;;;;0.20;0.00;;;34.40;99.90;;;;;;21285933;27;20247;-73
2022/06/13 18:00:56;;;;;;;0.20;0.00;;;33.60;99.90;;;;;;21287327;27;20246;-75
2022/06/13 18:11:01;;;;;;;0.20;0.00;;;33.50;99.90;;;;;;21227281;28;20242;-72
2022/06/13 18:21:07;;;;;;;0.20;0.00;;;32.60;99.90;;;;;;21227139;27;20227;-73
2022/06/13 18:31:12;;;;;;;0.20;0.00;;;32.40;99.90;;;;;;21227267;27;20226;-70
2022/06/13 18:41:19;;;;;;;0.20;0.00;;;31.50;99.90;;;;;;21143594;28;20200;-71
2022/06/13 18:51:25;;;;;;;0.20;0.00;;;30.90;99.90;;;;;;21143542;28;20212;-74
2022/06/13 19:01:31;;;;;;;0.20;0.00;;;30.20;99.90;;;;;;21203570;28;20239;-74
2022/06/13 19:11:37;;;;;;;0.20;0.00;;;29.30;99.90;;;;;;21225690;28;20253;-72
2022/06/13 19:21:41;;;;;;;0.20;0.10;;;28.90;99.90;;;;;;21221528;28;20279;-72
2022/06/13 19:31:51;;;;;;;0.20;0.10;;;28.80;99.90;;;;;;21219919;28;20216;-72
2022/06/13 19:42:00;;;;;;;0.20;0.00;;;28.70;99.90;;;;;;21139565;28;20199;-72
2022/06/13 19:52:07;;;;;;;0.20;0.10;;;28.60;99.90;;;;;;21139381;28;20224;-72
2022/06/13 20:02:11;;;;;;;0.20;0.00;;;28.30;99.90;;;;;;21140363;28;20239;-72
2022/06/13 20:12:17;;;;;;;0.20;0.00;;;27.80;99.90;;;;;;21136396;28;20239;-73
2022/06/13 20:22:21;;;;;;;0.20;0.00;;;27.20;99.90;;;;;;21138075;28;20283;-71
2022/06/13 20:32:27;;;;;;;0.20;0.00;;;27.10;99.90;;;;;;21146346;28;20219;-73
2022/06/13 20:42:35;;;;;;;0.20;0.10;;;26.60;99.90;;;;;;21222274;27;20206;-72
2022/06/13 20:52:40;;;;;;;0.20;0.10;;;26.60;99.90;;;;;;21217854;28;20283;-73
2022/06/13 21:02:47;;;;;;;0.20;0.00;;;26.30;99.90;;;;;;21219263;28;20243;-72
2022/06/13 21:12:57;;;;;;;0.20;0.00;;;26.00;99.90;;;;;;21220836;28;20278;-72
2022/06/13 21:23:02;;;;;;;0.20;0.00;;;25.70;99.90;;;;;;21220490;28;20287;-73
2022/06/13 21:33:08;;;;;;;0.20;0.00;;;25.60;99.90;;;;;;21195241;28;20343;-72
2022/06/13 21:43:13;;;;;;;0.20;0.00;;;25.40;99.90;;;;;;21141680;28;20287;-71
2022/06/13 21:53:18;;;;;;;0.20;0.00;;;25.40;99.90;;;;;;21159016;28;20223;-75
2022/06/13 22:03:22;;;;;;;0.20;0.10;;;25.30;99.90;;;;;;21232803;28;20813;-74
2022/06/13 22:13:27;;;;;;;0.20;0.00;;;25.10;99.90;;;;;;21232146;28;20230;-74
2022/06/13 22:23:31;;;;;;;0.20;0.00;;;24.80;99.90;;;;;;21232790;28;20215;-74
2022/06/13 22:33:36;;;;;;;0.20;0.08;;;24.50;99.90;;;;;;21231486;28;20241;-74
2022/06/13 22:43:40;;;;;;;0.20;0.00;;;24.50;99.90;;;;;;21232858;28;20191;-73
2022/06/13 22:53:46;;;;;;;0.20;0.00;;;24.20;99.90;;;;;;21228933;28;20216;-75
2022/06/13 23:03:49;;;;;;;0.20;0.10;;;24.10;99.90;;;;;;21233672;28;20215;-75
2022/06/13 23:13:55;;;;;;;0.20;0.00;;;24.00;99.90;;;;;;21231933;28;20249;-75
2022/06/13 23:23:59;;;;;;;0.20;0.10;;;24.00;99.90;;;;;;21232056;28;20238;-73
2022/06/13 23:34:04;;;;;;;0.20;0.00;;;24.00;99.90;;;;;;21204629;28;20249;-74
2022/06/13 23:44:08;;;;;;;0.20;0.00;;;24.30;99.90;;;;;;21145763;28;20228;-75
2022/06/13 23:54:13;;;;;;;0.20;0.00;;;23.80;99.90;;;;;;21144862;28;20231;-74
